sensor_id;sensor_type;location;lat;lon;timestamp;pressure;altitude;pressure_sealevel;temperature;humidity
72285;BME280;60220;53.552;10.092;2023-05-20T00:02:21;102522.66;;;13.25;47.16
72285;BME280;60220;53.552;10.092;2023-05-20T00:04:47;102520.84;;;13.17;46.51
72285;BME280;60220;53.552;10.092;2023-05-20T00:07:16;102520.94;;;13.35;46.36
72285;BME280;60220;53.552;10.092;2023-05-20T00:09:46;102520.88;;;13.18;45.64
72285;BME280;60220;53.552;10.092;2023-05-20T00:12:13;102527.91;;;13.22;46.04
72285;BME280;60220;53.552;10.092;2023-05-20T00:14:39;102527.75;;;12.95;47.12
72285;BME280;60220;53.552;10.092;2023-05-20T00:17:06;102525.03;;;12.80;48.16
72285;BME280;60220;53.552;10.092;2023-05-20T00:19:33;102529.53;;;13.02;46.63
72285;BME280;60220;53.552;10.092;2023-05-20T00:21:59;102528.81;;;13.27;46.66
72285;BME280;60220;53.552;10.092;2023-05-20T00:24:26;102525.13;;;12.95;47.43
72285;BME280;60220;53.552;10.092;2023-05-20T00:26:54;102525.31;;;13.31;46.42
72285;BME280;60220;53.552;10.092;2023-05-20T00:29:21;102534.72;;;12.84;46.90
72285;BME280;60220;53.552;10.092;2023-05-20T00:31:47;102531.47;;;13.30;46.76
72285;BME280;60220;53.552;10.092;2023-05-20T00:34:14;102534.00;;;13.09;46.95
72285;BME280;60220;53.552;10.092;2023-05-20T00:36:41;102527.78;;;12.98;46.40
72285;BME280;60220;53.552;10.092;2023-05-20T00:39:07;102526.88;;;12.93;46.36
72285;BME280;60220;53.552;10.092;2023-05-20T00:41:34;102527.84;;;13.09;46.59
72285;BME280;60220;53.552;10.092;2023-05-20T00:44:02;102528.59;;;12.88;46.57
72285;BME280;60220;53.552;10.092;2023-05-20T00:46:29;102537.41;;;12.90;46.66
72285;BME280;60220;53.552;10.092;2023-05-20T00:48:56;102526.19;;;13.30;45.56
72285;BME280;60220;53.552;10.092;2023-05-20T00:51:23;102527.78;;;13.01;46.85
72285;BME280;60220;53.552;10.092;2023-05-20T00:53:49;102525.19;;;13.10;45.95
72285;BME280;60220;53.552;10.092;2023-05-20T00:56:16;102523.44;;;13.05;46.41
72285;BME280;60220;53.552;10.092;2023-05-20T00:58:44;102515.59;;;13.21;46.14
72285;BME280;60220;53.552;10.092;2023-05-20T01:01:12;102511.19;;;13.14;46.59
72285;BME280;60220;53.552;10.092;2023-05-20T01:03:39;102508.63;;;13.35;46.13
72285;BME280;60220;53.552;10.092;2023-05-20T01:06:05;102511.94;;;12.97;47.13
72285;BME280;60220;53.552;10.092;2023-05-20T01:08:32;102507.66;;;13.12;46.57
72285;BME280;60220;53.552;10.092;2023-05-20T01:11:04;102514.59;;;12.95;46.80
72285;BME280;60220;53.552;10.092;2023-05-20T01:13:38;102513.63;;;12.84;46.88
72285;BME280;60220;53.552;10.092;2023-05-20T01:16:07;102507.59;;;13.05;46.81
72285;BME280;60220;53.552;10.092;2023-05-20T01:18:38;102511.06;;;12.94;46.51
72285;BME280;60220;53.552;10.092;2023-05-20T01:21:06;102508.31;;;12.75;47.00
72285;BME280;60220;53.552;10.092;2023-05-20T01:23:39;102510.03;;;12.71;47.45
72285;BME280;60220;53.552;10.092;2023-05-20T01:26:06;102507.50;;;12.85;47.01
72285;BME280;60220;53.552;10.092;2023-05-20T01:28:33;102511.25;;;13.31;46.34
72285;BME280;60220;53.552;10.092;2023-05-20T01:31:04;102513.00;;;13.27;46.75
72285;BME280;60220;53.552;10.092;2023-05-20T01:33:35;102509.44;;;13.16;46.30
72285;BME280;60220;53.552;10.092;2023-05-20T01:36:06;102507.78;;;13.40;45.94
72285;BME280;60220;53.552;10.092;2023-05-20T01:38:37;102515.66;;;13.35;46.24
72285;BME280;60220;53.552;10.092;2023-05-20T01:41:08;102509.22;;;12.86;47.36
72285;BME280;60220;53.552;10.092;2023-05-20T01:43:35;102513.59;;;12.78;47.31
72285;BME280;60220;53.552;10.092;2023-05-20T01:46:04;102514.53;;;12.89;47.06
72285;BME280;60220;53.552;10.092;2023-05-20T01:48:31;102513.50;;;12.63;47.55
72285;BME280;60220;53.552;10.092;2023-05-20T01:50:58;102512.13;;;13.31;46.50
72285;BME280;60220;53.552;10.092;2023-05-20T01:53:25;102510.41;;;13.33;47.42
72285;BME280;60220;53.552;10.092;2023-05-20T01:55:53;102509.47;;;13.25;47.24
72285;BME280;60220;53.552;10.092;2023-05-20T01:58:20;102514.75;;;13.22;47.27
72285;BME280;60220;53.552;10.092;2023-05-20T02:00:46;102510.09;;;12.82;47.34
72285;BME280;60220;53.552;10.092;2023-05-20T02:03:13;102512.69;;;12.70;48.31
72285;BME280;60220;53.552;10.092;2023-05-20T02:05:42;102507.56;;;13.00;48.12
72285;BME280;60220;53.552;10.092;2023-05-20T02:08:09;102500.63;;;13.11;48.51
72285;BME280;60220;53.552;10.092;2023-05-20T02:10:36;102509.56;;;13.44;47.58
72285;BME280;60220;53.552;10.092;2023-05-20T02:13:08;102507.59;;;13.06;48.79
72285;BME280;60220;53.552;10.092;2023-05-20T02:15:35;102504.13;;;13.12;48.84
72285;BME280;60220;53.552;10.092;2023-05-20T02:18:01;102512.16;;;13.34;48.25
72285;BME280;60220;53.552;10.092;2023-05-20T02:20:34;102501.38;;;12.89;49.33
72285;BME280;60220;53.552;10.092;2023-05-20T02:23:01;102506.81;;;13.18;49.41
72285;BME280;60220;53.552;10.092;2023-05-20T02:25:30;102503.28;;;13.14;49.63
72285;BME280;60220;53.552;10.092;2023-05-20T02:27:56;102503.22;;;13.08;49.50
72285;BME280;60220;53.552;10.092;2023-05-20T02:30:25;102491.72;;;12.97;50.12
72285;BME280;60220;53.552;10.092;2023-05-20T02:32:52;102485.50;;;12.83;50.69
72285;BME280;60220;53.552;10.092;2023-05-20T02:35:19;102487.47;;;13.20;50.11
72285;BME280;60220;53.552;10.092;2023-05-20T02:37:45;102486.47;;;12.94;50.52
72285;BME280;60220;53.552;10.092;2023-05-20T02:40:12;102482.06;;;12.93;51.47
72285;BME280;60220;53.552;10.092;2023-05-20T02:42:39;102486.63;;;13.30;50.55
72285;BME280;60220;53.552;10.092;2023-05-20T02:45:07;102481.91;;;12.67;52.47
72285;BME280;60220;53.552;10.092;2023-05-20T02:47:35;102488.00;;;12.59;53.33
72285;BME280;60220;53.552;10.092;2023-05-20T02:50:02;102488.03;;;12.60;53.30
72285;BME280;60220;53.552;10.092;2023-05-20T02:52:29;102491.44;;;12.48;53.65
72285;BME280;60220;53.552;10.092;2023-05-20T02:55:00;102492.50;;;12.75;53.76
72285;BME280;60220;53.552;10.092;2023-05-20T02:57:26;102495.06;;;12.66;53.93
72285;BME280;60220;53.552;10.092;2023-05-20T02:59:54;102491.66;;;12.79;54.21
72285;BME280;60220;53.552;10.092;2023-05-20T03:02:21;102492.59;;;12.93;54.22
72285;BME280;60220;53.552;10.092;2023-05-20T03:04:50;102496.72;;;12.48;55.77
72285;BME280;60220;53.552;10.092;2023-05-20T03:07:18;102495.97;;;12.69;55.32
72285;BME280;60220;53.552;10.092;2023-05-20T03:09:45;102502.69;;;12.26;56.65
72285;BME280;60220;53.552;10.092;2023-05-20T03:12:14;102504.63;;;12.48;56.53
72285;BME280;60220;53.552;10.092;2023-05-20T03:14:41;102505.63;;;12.69;56.00
72285;BME280;60220;53.552;10.092;2023-05-20T03:17:08;102505.28;;;12.20;57.29
72285;BME280;60220;53.552;10.092;2023-05-20T03:19:37;102496.75;;;12.55;57.00
72285;BME280;60220;53.552;10.092;2023-05-20T03:22:05;102504.47;;;12.32;57.47
72285;BME280;60220;53.552;10.092;2023-05-20T03:24:34;102496.34;;;12.03;58.83
72285;BME280;60220;53.552;10.092;2023-05-20T03:27:01;102502.47;;;12.02;59.32
72285;BME280;60220;53.552;10.092;2023-05-20T03:29:27;102499.13;;;12.20;59.50
72285;BME280;60220;53.552;10.092;2023-05-20T03:31:54;102499.97;;;12.14;59.56
72285;BME280;60220;53.552;10.092;2023-05-20T03:34:20;102503.47;;;12.16;59.75
72285;BME280;60220;53.552;10.092;2023-05-20T03:36:47;102503.56;;;12.25;60.03
72285;BME280;60220;53.552;10.092;2023-05-20T03:39:15;102497.44;;;12.29;59.98
72285;BME280;60220;53.552;10.092;2023-05-20T03:41:42;102487.13;;;12.55;59.20
72285;BME280;60220;53.552;10.092;2023-05-20T03:44:08;102492.31;;;12.50;60.17
72285;BME280;60220;53.552;10.092;2023-05-20T03:46:35;102493.75;;;12.11;60.96
72285;BME280;60220;53.552;10.092;2023-05-20T03:49:02;102497.19;;;12.00;61.68
72285;BME280;60220;53.552;10.092;2023-05-20T03:51:28;102491.94;;;11.99;62.02
72285;BME280;60220;53.552;10.092;2023-05-20T03:53:57;102491.16;;;12.12;62.02
72285;BME280;60220;53.552;10.092;2023-05-20T03:56:29;102491.22;;;12.21;61.60
72285;BME280;60220;53.552;10.092;2023-05-20T03:58:55;102492.81;;;12.01;62.76
72285;BME280;60220;53.552;10.092;2023-05-20T04:01:22;102491.69;;;11.76;64.13
72285;BME280;60220;53.552;10.092;2023-05-20T04:03:50;102486.56;;;11.88;64.31
72285;BME280;60220;53.552;10.092;2023-05-20T04:06:18;102493.00;;;12.22;63.19
72285;BME280;60220;53.552;10.092;2023-05-20T04:08:46;102490.16;;;11.98;63.82
72285;BME280;60220;53.552;10.092;2023-05-20T04:11:13;102496.56;;;12.29;62.85
72285;BME280;60220;53.552;10.092;2023-05-20T04:13:43;102498.25;;;12.19;63.37
72285;BME280;60220;53.552;10.092;2023-05-20T04:16:12;102509.28;;;11.80;65.38
72285;BME280;60220;53.552;10.092;2023-05-20T04:18:39;102505.06;;;12.00;65.46
72285;BME280;60220;53.552;10.092;2023-05-20T04:21:08;102507.16;;;12.35;65.18
72285;BME280;60220;53.552;10.092;2023-05-20T04:23:35;102508.09;;;12.46;64.21
72285;BME280;60220;53.552;10.092;2023-05-20T04:26:05;102504.44;;;12.24;64.83
72285;BME280;60220;53.552;10.092;2023-05-20T04:28:31;102510.63;;;12.35;64.73
72285;BME280;60220;53.552;10.092;2023-05-20T04:31:00;102502.28;;;12.97;63.35
72285;BME280;60220;53.552;10.092;2023-05-20T04:33:28;102509.13;;;12.66;63.91
72285;BME280;60220;53.552;10.092;2023-05-20T04:35:56;102499.41;;;12.61;64.52
72285;BME280;60220;53.552;10.092;2023-05-20T04:38:26;102496.66;;;12.45;64.80
72285;BME280;60220;53.552;10.092;2023-05-20T04:40:59;102502.81;;;12.43;65.66
72285;BME280;60220;53.552;10.092;2023-05-20T04:43:27;102496.81;;;12.67;64.92
72285;BME280;60220;53.552;10.092;2023-05-20T04:45:56;102496.97;;;12.85;64.93
72285;BME280;60220;53.552;10.092;2023-05-20T04:48:25;102495.00;;;12.54;65.06
72285;BME280;60220;53.552;10.092;2023-05-20T04:50:52;102497.75;;;12.73;65.40
72285;BME280;60220;53.552;10.092;2023-05-20T04:53:22;102492.56;;;12.91;64.40
72285;BME280;60220;53.552;10.092;2023-05-20T04:55:49;102493.53;;;13.04;63.66
72285;BME280;60220;53.552;10.092;2023-05-20T04:58:19;102497.19;;;13.32;64.12
72285;BME280;60220;53.552;10.092;2023-05-20T05:00:51;102498.13;;;13.48;63.39
72285;BME280;60220;53.552;10.092;2023-05-20T05:03:18;102502.63;;;13.79;62.31
72285;BME280;60220;53.552;10.092;2023-05-20T05:05:46;102507.88;;;13.76;61.56
72285;BME280;60220;53.552;10.092;2023-05-20T05:08:13;102499.97;;;13.96;61.00
72285;BME280;60220;53.552;10.092;2023-05-20T05:10:41;102499.03;;;13.59;62.61
72285;BME280;60220;53.552;10.092;2023-05-20T05:13:07;102499.06;;;13.80;62.34
72285;BME280;60220;53.552;10.092;2023-05-20T05:15:37;102487.38;;;13.05;64.63
72285;BME280;60220;53.552;10.092;2023-05-20T05:18:06;102494.66;;;13.59;63.62
72285;BME280;60220;53.552;10.092;2023-05-20T05:20:35;102493.66;;;13.31;63.39
72285;BME280;60220;53.552;10.092;2023-05-20T05:23:03;102500.84;;;13.84;62.75
72285;BME280;60220;53.552;10.092;2023-05-20T05:25:30;102502.50;;;13.50;63.63
72285;BME280;60220;53.552;10.092;2023-05-20T05:27:57;102504.31;;;13.62;63.19
72285;BME280;60220;53.552;10.092;2023-05-20T05:30:24;102500.75;;;13.39;63.82
72285;BME280;60220;53.552;10.092;2023-05-20T05:32:53;102504.16;;;13.21;64.40
72285;BME280;60220;53.552;10.092;2023-05-20T05:35:22;102505.13;;;13.46;64.62
72285;BME280;60220;53.552;10.092;2023-05-20T05:37:49;102502.44;;;13.30;64.57
72285;BME280;60220;53.552;10.092;2023-05-20T05:40:17;102506.84;;;13.28;64.93
72285;BME280;60220;53.552;10.092;2023-05-20T05:42:44;102504.09;;;13.10;65.64
72285;BME280;60220;53.552;10.092;2023-05-20T05:45:12;102504.25;;;13.34;64.64
72285;BME280;60220;53.552;10.092;2023-05-20T05:47:39;102504.84;;;12.83;65.99
72285;BME280;60220;53.552;10.092;2023-05-20T05:50:06;102509.22;;;12.83;66.68
72285;BME280;60220;53.552;10.092;2023-05-20T05:52:35;102507.69;;;13.18;66.03
72285;BME280;60220;53.552;10.092;2023-05-20T05:55:02;102498.13;;;13.46;65.08
72285;BME280;60220;53.552;10.092;2023-05-20T05:57:32;102504.38;;;13.83;64.03
72285;BME280;60220;53.552;10.092;2023-05-20T05:59:59;102503.47;;;13.78;63.75
72285;BME280;60220;53.552;10.092;2023-05-20T06:02:26;102500.84;;;13.90;63.53
72285;BME280;60220;53.552;10.092;2023-05-20T06:04:53;102493.81;;;14.10;62.79
72285;BME280;60220;53.552;10.092;2023-05-20T06:07:20;102498.25;;;14.04;62.20
72285;BME280;60220;53.552;10.092;2023-05-20T06:09:46;102498.25;;;14.17;61.72
72285;BME280;60220;53.552;10.092;2023-05-20T06:12:13;102502.59;;;14.82;60.50
72285;BME280;60220;53.552;10.092;2023-05-20T06:14:44;102499.09;;;13.92;62.36
72285;BME280;60220;53.552;10.092;2023-05-20T06:17:10;102504.38;;;14.35;61.32
72285;BME280;60220;53.552;10.092;2023-05-20T06:19:37;102496.47;;;14.18;62.07
72285;BME280;60220;53.552;10.092;2023-05-20T06:22:04;102499.13;;;14.53;61.26
72285;BME280;60220;53.552;10.092;2023-05-20T06:24:36;102492.06;;;14.58;60.08
72285;BME280;60220;53.552;10.092;2023-05-20T06:27:03;102485.69;;;15.29;58.52
72285;BME280;60220;53.552;10.092;2023-05-20T06:29:32;102483.16;;;14.98;58.75
72285;BME280;60220;53.552;10.092;2023-05-20T06:32:00;102480.53;;;14.98;59.51
72285;BME280;60220;53.552;10.092;2023-05-20T06:34:29;102482.34;;;14.74;59.46
72285;BME280;60220;53.552;10.092;2023-05-20T06:36:56;102476.19;;;14.67;59.98
72285;BME280;60220;53.552;10.092;2023-05-20T06:39:25;102485.03;;;14.45;60.25
72285;BME280;60220;53.552;10.092;2023-05-20T06:41:51;102481.47;;;14.67;59.89
72285;BME280;60220;53.552;10.092;2023-05-20T06:44:20;102482.22;;;15.19;58.83
72285;BME280;60220;53.552;10.092;2023-05-20T06:46:47;102481.06;;;15.73;57.21
72285;BME280;60220;53.552;10.092;2023-05-20T06:49:15;102468.81;;;15.54;57.55
72285;BME280;60220;53.552;10.092;2023-05-20T06:51:42;102475.09;;;16.52;54.96
72285;BME280;60220;53.552;10.092;2023-05-20T06:54:09;102465.19;;;16.72;54.05
72285;BME280;60220;53.552;10.092;2023-05-20T06:56:38;102460.72;;;16.74;54.58
72285;BME280;60220;53.552;10.092;2023-05-20T06:59:05;102467.44;;;17.04;53.14
72285;BME280;60220;53.552;10.092;2023-05-20T07:01:32;102463.63;;;17.28;52.54
72285;BME280;60220;53.552;10.092;2023-05-20T07:03:59;102468.50;;;16.91;53.30
72285;BME280;60220;53.552;10.092;2023-05-20T07:06:27;102470.44;;;17.47;51.80
72285;BME280;60220;53.552;10.092;2023-05-20T07:08:54;102468.28;;;17.74;51.35
72285;BME280;60220;53.552;10.092;2023-05-20T07:11:21;102461.31;;;17.67;50.98
72285;BME280;60220;53.552;10.092;2023-05-20T07:13:48;102463.25;;;16.87;53.68
72285;BME280;60220;53.552;10.092;2023-05-20T07:16:15;102464.84;;;17.01;53.79
72285;BME280;60220;53.552;10.092;2023-05-20T07:18:41;102467.16;;;17.27;52.95
72285;BME280;60220;53.552;10.092;2023-05-20T07:21:10;102462.19;;;17.00;52.75
72285;BME280;60220;53.552;10.092;2023-05-20T07:23:39;102466.69;;;16.95;53.17
72285;BME280;60220;53.552;10.092;2023-05-20T07:26:05;102469.53;;;17.48;51.62
72285;BME280;60220;53.552;10.092;2023-05-20T07:28:32;102471.56;;;16.50;54.16
72285;BME280;60220;53.552;10.092;2023-05-20T07:30:59;102464.38;;;16.64;53.66
72285;BME280;60220;53.552;10.092;2023-05-20T07:33:28;102466.97;;;16.72;52.65
72285;BME280;60220;53.552;10.092;2023-05-20T07:35:55;102464.13;;;16.86;52.75
72285;BME280;60220;53.552;10.092;2023-05-20T07:38:22;102464.00;;;16.98;53.33
72285;BME280;60220;53.552;10.092;2023-05-20T07:40:50;102469.38;;;17.62;52.01
72285;BME280;60220;53.552;10.092;2023-05-20T07:43:19;102462.34;;;17.56;50.22
72285;BME280;60220;53.552;10.092;2023-05-20T07:45:46;102464.78;;;17.72;50.03
72285;BME280;60220;53.552;10.092;2023-05-20T07:48:12;102450.63;;;18.25;49.31
72285;BME280;60220;53.552;10.092;2023-05-20T07:50:39;102454.31;;;18.18;49.15
72285;BME280;60220;53.552;10.092;2023-05-20T07:53:06;102458.22;;;18.44;48.84
72285;BME280;60220;53.552;10.092;2023-05-20T07:55:35;102457.09;;;19.47;47.58
72285;BME280;60220;53.552;10.092;2023-05-20T07:58:05;102449.00;;;19.51;46.02
72285;BME280;60220;53.552;10.092;2023-05-20T08:00:32;102447.28;;;19.07;46.95
72285;BME280;60220;53.552;10.092;2023-05-20T08:03:01;102443.41;;;18.31;48.47
72285;BME280;60220;53.552;10.092;2023-05-20T08:05:28;102441.03;;;19.08;46.86
72285;BME280;60220;53.552;10.092;2023-05-20T08:07:55;102446.94;;;18.81;48.53
72285;BME280;60220;53.552;10.092;2023-05-20T08:10:21;102444.13;;;19.28;47.84
72285;BME280;60220;53.552;10.092;2023-05-20T08:12:50;102441.13;;;19.47;47.09
72285;BME280;60220;53.552;10.092;2023-05-20T08:15:19;102437.09;;;18.84;46.27
72285;BME280;60220;53.552;10.092;2023-05-20T08:17:45;102443.66;;;18.67;46.71
72285;BME280;60220;53.552;10.092;2023-05-20T08:20:14;102447.00;;;19.19;46.01
72285;BME280;60220;53.552;10.092;2023-05-20T08:22:41;102444.16;;;18.87;46.00
72285;BME280;60220;53.552;10.092;2023-05-20T08:25:08;102439.66;;;18.43;47.21
72285;BME280;60220;53.552;10.092;2023-05-20T08:27:39;102429.59;;;18.62;46.60
72285;BME280;60220;53.552;10.092;2023-05-20T08:30:07;102430.56;;;19.01;44.64
72285;BME280;60220;53.552;10.092;2023-05-20T08:32:35;102428.91;;;18.00;47.28
72285;BME280;60220;53.552;10.092;2023-05-20T08:35:02;102434.16;;;17.45;48.68
72285;BME280;60220;53.552;10.092;2023-05-20T08:37:29;102428.13;;;17.35;48.84
72285;BME280;60220;53.552;10.092;2023-05-20T08:39:56;102433.25;;;17.47;48.79
72285;BME280;60220;53.552;10.092;2023-05-20T08:42:23;102438.91;;;17.23;49.30
72285;BME280;60220;53.552;10.092;2023-05-20T08:44:51;102420.94;;;16.77;50.20
72285;BME280;60220;53.552;10.092;2023-05-20T08:47:21;102422.38;;;16.23;51.22
72285;BME280;60220;53.552;10.092;2023-05-20T08:49:49;102420.25;;;16.57;50.15
72285;BME280;60220;53.552;10.092;2023-05-20T08:52:17;102428.25;;;17.26;49.11
72285;BME280;60220;53.552;10.092;2023-05-20T08:54:51;102425.53;;;17.29;49.35
72285;BME280;60220;53.552;10.092;2023-05-20T08:57:20;102429.53;;;16.95;49.78
72285;BME280;60220;53.552;10.092;2023-05-20T08:59:47;102431.88;;;17.19;49.68
72285;BME280;60220;53.552;10.092;2023-05-20T09:02:15;102432.56;;;16.64;49.90
72285;BME280;60220;53.552;10.092;2023-05-20T09:04:42;102420.03;;;16.78;50.04
72285;BME280;60220;53.552;10.092;2023-05-20T09:07:10;102423.03;;;17.20;48.45
72285;BME280;60220;53.552;10.092;2023-05-20T09:09:39;102414.00;;;17.91;47.61
72285;BME280;60220;53.552;10.092;2023-05-20T09:12:08;102411.66;;;17.72;47.47
72285;BME280;60220;53.552;10.092;2023-05-20T09:14:37;102407.66;;;18.00;47.27
72285;BME280;60220;53.552;10.092;2023-05-20T09:17:04;102413.22;;;17.23;49.17
72285;BME280;60220;53.552;10.092;2023-05-20T09:19:32;102410.63;;;17.19;47.58
72285;BME280;60220;53.552;10.092;2023-05-20T09:21:59;102413.66;;;17.54;48.06
72285;BME280;60220;53.552;10.092;2023-05-20T09:24:27;102404.88;;;17.51;47.58
72285;BME280;60220;53.552;10.092;2023-05-20T09:26:57;102399.25;;;17.11;47.35
72285;BME280;60220;53.552;10.092;2023-05-20T09:29:24;102403.06;;;16.90;48.73
72285;BME280;60220;53.552;10.092;2023-05-20T09:31:51;102388.56;;;17.77;47.51
72285;BME280;60220;53.552;10.092;2023-05-20T09:34:19;102377.03;;;18.27;46.42
72285;BME280;60220;53.552;10.092;2023-05-20T09:36:49;102386.44;;;17.97;45.71
72285;BME280;60220;53.552;10.092;2023-05-20T09:39:19;102393.50;;;17.43;46.56
72285;BME280;60220;53.552;10.092;2023-05-20T09:41:55;102398.78;;;17.44;46.16
72285;BME280;60220;53.552;10.092;2023-05-20T09:44:23;102389.94;;;16.79;47.78
72285;BME280;60220;53.552;10.092;2023-05-20T09:46:50;102388.03;;;16.92;48.08
72285;BME280;60220;53.552;10.092;2023-05-20T09:49:20;102383.53;;;16.97;47.99
72285;BME280;60220;53.552;10.092;2023-05-20T09:51:51;102384.50;;;16.89;48.01
72285;BME280;60220;53.552;10.092;2023-05-20T09:54:19;102386.28;;;16.90;48.17
72285;BME280;60220;53.552;10.092;2023-05-20T09:56:49;102390.22;;;16.54;48.96
72285;BME280;60220;53.552;10.092;2023-05-20T09:59:23;102383.75;;;16.82;48.85
72285;BME280;60220;53.552;10.092;2023-05-20T10:01:59;102390.22;;;16.55;49.14
72285;BME280;60220;53.552;10.092;2023-05-20T10:04:27;102379.88;;;17.06;48.01
72285;BME280;60220;53.552;10.092;2023-05-20T10:10:24;102379.50;;;16.67;48.86
72285;BME280;60220;53.552;10.092;2023-05-20T10:13:10;102384.97;;;17.21;47.62
72285;BME280;60220;53.552;10.092;2023-05-20T10:15:49;102376.56;;;16.90;48.48
72285;BME280;60220;53.552;10.092;2023-05-20T10:18:41;102373.16;;;17.43;47.42
72285;BME280;60220;53.552;10.092;2023-05-20T10:21:15;102364.66;;;17.18;47.95
72285;BME280;60220;53.552;10.092;2023-05-20T10:23:42;102360.09;;;16.64;49.67
72285;BME280;60220;53.552;10.092;2023-05-20T10:26:09;102355.88;;;17.15;48.11
72285;BME280;60220;53.552;10.092;2023-05-20T10:28:37;102354.75;;;16.67;49.40
72285;BME280;60220;53.552;10.092;2023-05-20T10:31:15;102358.03;;;16.86;49.83
72285;BME280;60220;53.552;10.092;2023-05-20T10:33:45;102356.31;;;16.83;49.96
72285;BME280;60220;53.552;10.092;2023-05-20T10:36:21;102349.78;;;16.36;50.52
72285;BME280;60220;53.552;10.092;2023-05-20T10:38:51;102354.66;;;16.74;50.05
72285;BME280;60220;53.552;10.092;2023-05-20T10:41:20;102353.56;;;16.91;50.19
72285;BME280;60220;53.552;10.092;2023-05-20T10:43:58;102347.97;;;17.69;48.40
72285;BME280;60220;53.552;10.092;2023-05-20T10:46:26;102359.06;;;17.38;48.63
72285;BME280;60220;53.552;10.092;2023-05-20T10:48:56;102342.13;;;16.86;49.01
72285;BME280;60220;53.552;10.092;2023-05-20T10:51:27;102338.16;;;17.17;48.57
72285;BME280;60220;53.552;10.092;2023-05-20T10:53:56;102341.31;;;16.81;49.05
72285;BME280;60220;53.552;10.092;2023-05-20T10:56:24;102339.78;;;17.24;48.79
72285;BME280;60220;53.552;10.092;2023-05-20T10:58:52;102332.06;;;17.09;48.27
72285;BME280;60220;53.552;10.092;2023-05-20T11:01:23;102332.75;;;17.23;48.44
72285;BME280;60220;53.552;10.092;2023-05-20T11:03:53;102334.56;;;17.19;48.13
72285;BME280;60220;53.552;10.092;2023-05-20T11:06:25;102330.31;;;17.64;47.64
72285;BME280;60220;53.552;10.092;2023-05-20T11:08:53;102326.75;;;17.10;48.31
72285;BME280;60220;53.552;10.092;2023-05-20T11:11:21;102322.72;;;16.84;48.52
72285;BME280;60220;53.552;10.092;2023-05-20T11:13:50;102325.47;;;17.37;47.88
72285;BME280;60220;53.552;10.092;2023-05-20T11:16:18;102320.16;;;17.37;47.63
72285;BME280;60220;53.552;10.092;2023-05-20T11:18:47;102333.34;;;17.40;47.30
72285;BME280;60220;53.552;10.092;2023-05-20T11:21:15;102322.59;;;16.91;48.31
72285;BME280;60220;53.552;10.092;2023-05-20T11:23:42;102319.91;;;17.52;47.58
72285;BME280;60220;53.552;10.092;2023-05-20T11:26:08;102313.66;;;17.55;47.54
72285;BME280;60220;53.552;10.092;2023-05-20T11:28:37;102318.97;;;17.53;47.53
72285;BME280;60220;53.552;10.092;2023-05-20T11:31:04;102311.84;;;17.57;47.57
72285;BME280;60220;53.552;10.092;2023-05-20T11:33:31;102314.50;;;17.00;47.91
72285;BME280;60220;53.552;10.092;2023-05-20T11:35:58;102325.25;;;16.91;48.47
72285;BME280;60220;53.552;10.092;2023-05-20T11:38:28;102313.91;;;16.82;48.95
72285;BME280;60220;53.552;10.092;2023-05-20T11:40:56;102312.13;;;16.84;49.36
72285;BME280;60220;53.552;10.092;2023-05-20T11:43:23;102314.44;;;17.06;48.79
72285;BME280;60220;53.552;10.092;2023-05-20T11:45:52;102313.38;;;17.18;49.34
72285;BME280;60220;53.552;10.092;2023-05-20T11:48:22;102316.84;;;17.23;48.95
72285;BME280;60220;53.552;10.092;2023-05-20T11:50:54;102307.34;;;17.05;48.41
72285;BME280;60220;53.552;10.092;2023-05-20T11:53:23;102315.66;;;16.83;49.11
72285;BME280;60220;53.552;10.092;2023-05-20T11:55:53;102310.63;;;16.61;49.49
72285;BME280;60220;53.552;10.092;2023-05-20T11:58:21;102318.03;;;17.01;48.65
72285;BME280;60220;53.552;10.092;2023-05-20T12:00:52;102316.94;;;17.17;48.42
72285;BME280;60220;53.552;10.092;2023-05-20T12:03:18;102306.47;;;17.05;48.13
72285;BME280;60220;53.552;10.092;2023-05-20T12:05:46;102302.13;;;17.57;47.40
72285;BME280;60220;53.552;10.092;2023-05-20T12:08:13;102301.63;;;17.85;47.13
72285;BME280;60220;53.552;10.092;2023-05-20T12:10:42;102293.53;;;17.40;48.22
72285;BME280;60220;53.552;10.092;2023-05-20T12:13:10;102291.84;;;17.36;48.10
72285;BME280;60220;53.552;10.092;2023-05-20T12:15:38;102294.97;;;17.06;49.42
72285;BME280;60220;53.552;10.092;2023-05-20T12:18:04;102311.03;;;16.95;49.81
72285;BME280;60220;53.552;10.092;2023-05-20T12:20:31;102298.78;;;17.45;48.75
72285;BME280;60220;53.552;10.092;2023-05-20T12:22:59;102294.22;;;17.53;48.56
72285;BME280;60220;53.552;10.092;2023-05-20T12:25:26;102301.59;;;17.88;48.87
72285;BME280;60220;53.552;10.092;2023-05-20T12:27:53;102283.78;;;17.42;48.56
72285;BME280;60220;53.552;10.092;2023-05-20T12:30:23;102283.28;;;17.73;48.00
72285;BME280;60220;53.552;10.092;2023-05-20T12:32:50;102284.50;;;17.52;48.19
72285;BME280;60220;53.552;10.092;2023-05-20T12:35:37;102283.91;;;17.87;48.23
72285;BME280;60220;53.552;10.092;2023-05-20T12:38:05;102272.66;;;17.73;47.71
72285;BME280;60220;53.552;10.092;2023-05-20T12:40:32;102281.78;;;17.00;49.71
72285;BME280;60220;53.552;10.092;2023-05-20T12:42:59;102277.13;;;17.71;48.35
72285;BME280;60220;53.552;10.092;2023-05-20T12:45:30;102278.69;;;17.81;48.92
72285;BME280;60220;53.552;10.092;2023-05-20T12:47:57;102273.75;;;17.59;49.08
72285;BME280;60220;53.552;10.092;2023-05-20T12:50:24;102289.91;;;17.47;48.89